WEATHER DATA

TODAY
Time Temp. Dewp. Hum. Bar. 1h Prec. 24h Prec.
00:05 16.5 16.5 100 1008.3 2.8280 0.4000
00:15 16.5 16.5 100 1008.2 2.7270 0.7000
00:25 16.5 16.5 100 1008 2.8280 1.2000
00:35 16.5 16.5 100 1007.9 2.1210 1.6000
00:56 16.4 16.4 100 1007.7 3.5350 3.5000
01:06 16.5 16.5 100 1007.6 4.0400 4.4000
01:15 16.5 16.5 100 1007.4 4.1410 4.8000
01:26 16.5 16.5 100 1007.2 3.8380 5.1000
01:36 16.6 16.6 100 1007.1 3.6360 5.3000
01:46 16.6 16.6 100 1006.9 2.6260 5.4000
01:56 16.6 16.6 100 1006.8 2.1210 5.7000
02:06 16.7 16.7 100 1006.6 1.2120 6.1000
02:16 16.7 16.7 100 1006.4 1.4140 6.5000
02:26 16.7 16.7 100 1006.4 2.1210 7.4000
02:37 16.7 16.7 100 1006.3 2.3230 7.7000
02:47 16.7 16.7 100 1006.2 2.0200 7.7000
02:56 16.8 16.8 100 1006.1 1.6160 7.7000
03:06 16.8 16.8 100 1006.1 1.2120 7.7000
03:17 16.8 16.8 100 1006.2 0.3030 7.7000
03:27 16.8 16.8 100 1006.2 0.0000 7.7000
03:37 16.8 16.8 100 1006.3 0.0000 7.7000
03:47 16.7 16.7 100 1006.3 0.0000 7.7000
03:57 16.5 16.5 100 1006.4 0.0000 7.7000
04:07 16.4 16.4 100 1006.4 0.0000 7.7000
04:17 16.4 16.4 100 1006.4 0.0000 7.7000
04:28 16.3 16.3 100 1006.3 0.0000 7.7000
04:37 16.2 16.2 100 1006.2 0.0000 7.7000
04:47 16.1 16.1 100 1006 0.0000 7.7000
04:58 16.1 16.1 100 1005.9 0.0000 7.7000
05:08 16 16 100 1005.8 0.0000 7.7000
05:18 15.9 15.9 100 1005.9 0.0000 7.7000
05:27 15.9 15.9 100 1005.9 0.0000 7.7000
05:38 15.9 15.9 100 1005.9 0.0000 7.7000
05:48 15.9 15.9 100 1006.1 0.0000 7.7000
05:58 15.9 15.9 100 1006.2 0.0000 7.7000
06:08 15.9 15.9 100 1006.3 0.0000 7.7000
06:18 15.9 15.9 100 1006.4 0.0000 7.7000
06:28 15.9 15.9 100 1006.4 0.0000 7.7000
06:38 16 16 100 1006.4 0.0000 7.7000
06:49 16 16 100 1006.5 0.0000 7.7000
06:59 16.1 16.1 100 1006.5 0.0000 7.7000
07:09 16.1 16.1 100 1006.5 0.0000 7.7000
07:19 16.1 16.1 100 1006.5 0.0000 7.7000
07:29 16.1 16.1 100 1006.6 0.0000 7.7000
07:39 16.1 16.1 100 1006.5 0.0000 7.7000
07:49 16.2 16.2 100 1006.5 0.0000 7.7000
08:00 16.2 16.2 100 1006.5 0.0000 7.7000
08:10 16.4 16.4 100 1006.6 0.0000 7.7000
08:19 16.4 16.4 100 1006.8 0.0000 7.7000
08:29 16.4 16.4 100 1006.9 0.2020 7.9000
08:46 16.4 16.4 100 1007 0.3030 8.0000
08:56 16.3 16.3 100 1007.1 0.4040 8.1000
09:06 16.3 16.3 100 1007.2 0.6060 8.3000
09:16 16.3 16.3 100 1007.3 0.6060 8.4000
09:27 16.4 16.4 100 1007.2 0.7070 8.6000
09:36 16.4 16.4 100 1007.3 0.7070 8.7000
09:46 16.5 16.5 100 1007.3 0.6060 8.7000
09:57 16.8 16.8 100 1007.4 0.4040 8.7000
10:07 16.9 16.9 100 1007.6 0.3030 8.7000
10:16 17.2 17.2 100 1007.7 0.1010 8.7000
10:27 17.2 17.2 100 1007.8 0.1010 8.7000
10:37 17.1 17.1 100 1007.7 0.0000 8.7000
10:47 17.3 17.3 100 1007.8 0.0000 8.7000
10:57 17.3 17.3 100 1007.7 0.0000 8.7000
11:08 17.3 17.3 100 1007.8 0.0000 8.7000
11:17 17.4 17.4 100 1007.8 0.0000 8.7000
11:27 17.3 17.3 100 1007.8 0.0000 8.7000
11:37 17.2 17.2 100 1008.1 0.0000 8.7000
11:48 17.3 17.3 100 1008.1 0.0000 8.7000
11:58 17.2 17.2 100 1008 0.0000 8.7000
12:07 17.1 17.1 100 1008.1 0.0000 8.7000
12:18 17.1 17.1 100 1008.1 0.0000 8.7000
12:28 17 17 100 1008.1 0.0000 8.7000
12:38 16.9 16.9 100 1008.2 0.0000 8.7000
12:48 16.8 16.8 100 1008.4 0.0000 8.7000
12:58 16.7 16.7 100 1008.5 0.0000 8.7000
13:08 16.6 16.6 100 1008.6 0.0000 8.7000
13:18 16.6 16.6 100 1008.7 0.0000 8.7000
13:29 16.6 16.6 100 1008.8 0.0000 8.7000
13:39 16.6 16.6 100 1009 0.0000 8.7000
13:48 16.6 16.6 100 1009 0.0000 8.7000
13:58 16.8 16.8 100 1009 0.0000 8.7000
14:09 17.1 17.1 100 1009.1 0.0000 8.7000
14:19 17.3 17.3 100 1009.2 0.0000 8.7000
14:28 17.4 17.4 100 1009.3 0.0000 8.7000
14:39 17.4 17.4 100 1009.5 0.0000 8.7000
14:49 17.4 17.4 100 1009.7 0.0000 8.7000
14:59 17.4 17.4 100 1009.7 0.0000 8.7000
15:09 17.4 16.8 96 1009.7 0.0000 8.7000
15:19 17.4 15.9 91 1009.9 0.0000 8.7000
15:29 17.4 15.6 89 1009.8 0.0000 8.7000
15:39 17.4 15.4 88 1009.9 0.0000 8.7000
15:50 17.3 14.8 85 1010 0.0000 8.7000
16:00 17.3 14.9 86 1010 0.0000 8.7000
16:09 17.2 13.9 81 1009.9 0.0000 8.7000
16:19 17.1 13.6 80 1010.1 0.0000 8.7000
16:30 17 13.7 81 1010.2 0.0000 8.7000
16:40 16.8 13.3 80 1010.3 0.0000 8.7000
16:50 16.7 13.6 82 1010.2 0.0000 8.7000
17:00 16.5 13 80 1010.2 0.0000 8.7000
17:10 16.4 13.1 81 1010.3 0.0000 8.7000
17:20 16.3 12.8 80 1010.3 0.0000 8.7000
17:30 16.2 12.7 80 1010.4 0.0000 8.7000
17:41 16.2 12.7 80 1010.4 0.0000 8.7000
17:50 16.1 13 82 1010.4 0.0000 8.7000
18:00 16.1 13 82 1010.4 0.0000 8.7000
18:11 16 12.7 81 1010.4 0.0000 8.7000
18:21 15.9 12.6 81 1010.5 0.0000 8.7000
18:31 15.9 13.2 84 1010.4 0.0000 8.7000
18:40 15.8 13.1 84 1010.4 0.0000 8.7000
18:51 15.8 13.1 84 1010.4 0.0000 8.7000
19:01 15.7 13 84 1010.5 0.0000 8.7000
19:11 15.6 13.1 85 1010.5 0.0000 8.7000
19:21 15.5 13.2 86 1010.5 0.0000 8.7000
19:32 15.4 13.1 86 1010.7 0.0000 8.7000
19:41 15.3 13 86 1010.8 0.0000 8.7000
19:51 15.2 12.9 86 1010.7 0.0000 8.7000
20:02 15 12.7 86 1010.8 0.0000 8.7000

DAY STATISTIC

2018-08-20
TEMPERATURE
AVERAGE
16.5
HIGH
17.4
11:17
LOW
15.0
20:02
PRESSURE
AVERAGE
1008.0
HIGH
1010.8
19:41
LOW
1005.8
05:08
DEWPOINT
AVERAGE
15.8
HIGH
17.4
11:17
LOW
12.6
18:21
HUMIDITY
AVERAGE
96
HIGH
100
00:05
LOW
80
16:19
PRECIPITATION
RAIN HOUR
4.1
RAIN DAY
8.7
TEMPERATURE (°C)
LOW
15.0
HIGH
17.4
AVERAGE
16.5
PRESSURE (hpa)
LOW
1005.8
HIGH
1010.8
AVERAGE
1008.0
DEVICE